createdAt,value
2023-05-12T00:00:13.628Z,99.30
2023-05-12T00:02:41.351Z,99.50
2023-05-12T00:05:09.459Z,99.60
2023-05-12T00:07:37.137Z,99.60
2023-05-12T00:10:04.972Z,99.50
2023-05-12T00:12:32.850Z,99.60
2023-05-12T00:15:01.372Z,99.90
2023-05-12T00:17:29.144Z,99.60
2023-05-12T00:19:56.583Z,99.60
2023-05-12T00:22:24.055Z,99.70
2023-05-12T00:24:51.536Z,99.90
2023-05-12T00:27:19.090Z,99.90
2023-05-12T00:29:46.556Z,99.90
2023-05-12T00:32:14.466Z,99.90
2023-05-12T00:34:42.595Z,99.90
2023-05-12T00:37:10.891Z,99.90
2023-05-12T00:39:38.374Z,99.90
2023-05-12T00:42:05.959Z,99.90
2023-05-12T00:44:33.740Z,99.90
2023-05-12T00:47:01.279Z,99.90
2023-05-12T00:49:28.852Z,99.90
2023-05-12T00:51:58.805Z,99.90
2023-05-12T00:54:27.620Z,99.90
2023-05-12T00:56:55.589Z,99.90
2023-05-12T00:59:23.058Z,99.90
2023-05-12T01:01:50.838Z,99.90
2023-05-12T01:04:18.456Z,99.90
2023-05-12T01:07:10.101Z,99.90
2023-05-12T01:09:37.637Z,99.90
2023-05-12T01:12:05.787Z,99.90
2023-05-12T01:14:34.348Z,99.90
2023-05-12T01:17:09.158Z,99.90
2023-05-12T01:19:52.585Z,99.90
2023-05-12T01:22:20.533Z,99.90
2023-05-12T01:24:57.778Z,99.90
2023-05-12T01:27:27.618Z,99.90
2023-05-12T01:29:59.035Z,99.90
2023-05-12T01:32:27.279Z,99.90
2023-05-12T01:34:54.698Z,99.90
2023-05-12T01:37:22.511Z,99.90
2023-05-12T01:39:49.989Z,99.90
2023-05-12T01:42:17.426Z,99.90
2023-05-12T01:44:45.008Z,99.90
2023-05-12T01:47:12.488Z,99.90
2023-05-12T01:49:39.998Z,99.90
2023-05-12T01:52:07.679Z,99.90
2023-05-12T01:54:35.213Z,99.90
2023-05-12T01:57:02.847Z,99.90
2023-05-12T01:59:30.318Z,99.90
2023-05-12T02:01:57.914Z,99.90
2023-05-12T02:04:25.411Z,99.90
2023-05-12T02:06:52.873Z,99.90
2023-05-12T02:09:21.466Z,99.90
2023-05-12T02:11:49.630Z,99.90
2023-05-12T02:14:17.085Z,99.90
2023-05-12T02:16:44.682Z,99.90
2023-05-12T02:19:12.179Z,99.90
2023-05-12T02:21:39.699Z,99.90
2023-05-12T02:24:08.110Z,99.90
2023-05-12T02:26:35.556Z,99.90
2023-05-12T02:29:03.117Z,99.90
2023-05-12T02:31:30.600Z,99.90
2023-05-12T02:33:59.021Z,99.90
2023-05-12T02:36:26.591Z,99.90
2023-05-12T02:38:54.039Z,99.90
2023-05-12T02:41:21.523Z,99.90
2023-05-12T02:43:49.063Z,99.90
2023-05-12T02:46:16.606Z,99.90
2023-05-12T02:48:44.142Z,99.90
2023-05-12T02:51:11.619Z,99.90
2023-05-12T02:53:39.210Z,99.90
2023-05-12T02:56:07.993Z,99.90
2023-05-12T02:58:35.640Z,99.90
2023-05-12T03:01:10.971Z,99.90
2023-05-12T03:03:39.284Z,99.90
2023-05-12T03:06:07.677Z,99.90
2023-05-12T03:08:35.301Z,99.90
2023-05-12T03:11:02.854Z,99.90
2023-05-12T03:13:30.368Z,99.90
2023-05-12T03:16:01.769Z,99.90
2023-05-12T03:18:29.511Z,99.90
2023-05-12T03:20:57.139Z,99.90
2023-05-12T03:23:24.769Z,99.90
2023-05-12T03:25:52.227Z,99.90
2023-05-12T03:28:19.720Z,99.90
2023-05-12T03:30:47.311Z,99.90
2023-05-12T03:33:14.893Z,99.90
2023-05-12T03:35:42.700Z,99.90
2023-05-12T03:38:10.152Z,99.90
2023-05-12T03:40:37.834Z,99.90
2023-05-12T03:43:05.318Z,99.90
2023-05-12T03:45:32.774Z,99.90
2023-05-12T03:48:00.293Z,99.90
2023-05-12T03:50:27.796Z,99.90
2023-05-12T03:52:56.304Z,99.90
2023-05-12T03:55:23.791Z,99.90
2023-05-12T03:57:51.587Z,99.90
2023-05-12T04:00:19.980Z,99.90
2023-05-12T04:02:47.675Z,99.90
2023-05-12T04:05:15.527Z,99.90
2023-05-12T04:07:42.995Z,99.90
2023-05-12T04:10:10.913Z,99.90
2023-05-12T04:12:38.423Z,99.90
2023-05-12T04:15:07.219Z,99.90
2023-05-12T04:17:35.181Z,99.90
2023-05-12T04:20:03.059Z,99.90
2023-05-12T04:22:30.799Z,99.90
2023-05-12T04:24:58.240Z,99.90
2023-05-12T04:27:25.829Z,99.90
2023-05-12T04:29:53.298Z,99.90
2023-05-12T04:32:20.842Z,99.90
2023-05-12T04:34:48.607Z,99.90
2023-05-12T04:37:16.085Z,99.90
2023-05-12T04:39:43.524Z,99.90
2023-05-12T04:42:10.999Z,99.90
2023-05-12T04:44:38.460Z,99.90
2023-05-12T04:47:06.164Z,99.90
2023-05-12T04:49:33.685Z,99.90
2023-05-12T04:52:01.212Z,99.90
2023-05-12T04:54:28.674Z,99.90
2023-05-12T04:56:56.135Z,99.90
2023-05-12T04:59:24.586Z,99.90
2023-05-12T05:01:52.222Z,99.90
2023-05-12T05:04:20.268Z,99.90
2023-05-12T05:06:47.689Z,99.90
2023-05-12T05:09:15.140Z,99.90
2023-05-12T05:11:42.625Z,99.90
2023-05-12T05:14:10.117Z,99.90
2023-05-12T05:16:37.609Z,99.90
2023-05-12T05:19:06.667Z,99.90
2023-05-12T05:21:39.798Z,99.90
2023-05-12T05:24:09.145Z,99.90
2023-05-12T05:26:37.708Z,99.90
2023-05-12T05:29:05.553Z,99.90
2023-05-12T05:31:33.231Z,99.90
2023-05-12T05:34:00.807Z,99.90
2023-05-12T05:36:29.965Z,99.90
2023-05-12T05:38:58.995Z,99.90
2023-05-12T05:41:26.567Z,99.90
2023-05-12T05:43:54.062Z,99.90
2023-05-12T05:46:21.645Z,99.90
2023-05-12T05:48:49.155Z,99.90
2023-05-12T05:51:16.734Z,99.90
2023-05-12T05:53:44.430Z,99.90
2023-05-12T05:56:11.936Z,99.90
2023-05-12T05:58:39.451Z,99.90
2023-05-12T06:01:07.566Z,99.90
2023-05-12T06:03:35.198Z,99.90
2023-05-12T06:06:03.005Z,99.90
2023-05-12T06:08:30.647Z,99.90
2023-05-12T06:10:58.163Z,99.90
2023-05-12T06:13:25.884Z,99.90
2023-05-12T06:15:53.415Z,99.90
2023-05-12T06:18:23.495Z,99.90
2023-05-12T06:20:50.987Z,99.90
2023-05-12T06:23:18.455Z,99.90
2023-05-12T06:25:48.804Z,99.90
2023-05-12T06:28:16.243Z,99.90
2023-05-12T06:30:43.765Z,99.90
2023-05-12T06:33:11.525Z,99.90
2023-05-12T06:35:39.279Z,99.90
2023-05-12T06:38:07.401Z,99.90
2023-05-12T06:40:34.844Z,99.90
2023-05-12T06:43:02.986Z,99.90
2023-05-12T06:45:30.921Z,99.90
2023-05-12T06:47:58.483Z,99.90
2023-05-12T06:50:26.075Z,99.90
2023-05-12T06:52:53.681Z,99.90
2023-05-12T06:55:22.244Z,99.90
2023-05-12T06:57:55.810Z,99.90
2023-05-12T07:00:25.090Z,99.90
2023-05-12T07:02:53.249Z,99.90
2023-05-12T07:05:21.517Z,99.90
2023-05-12T07:07:49.393Z,99.90
2023-05-12T07:10:17.015Z,99.90
2023-05-12T07:12:44.571Z,99.90
2023-05-12T07:15:12.306Z,99.90
2023-05-12T07:17:39.817Z,99.90
2023-05-12T07:20:09.097Z,99.90
2023-05-12T07:22:38.774Z,99.90
2023-05-12T07:25:08.243Z,99.90
2023-05-12T07:27:35.889Z,99.90
2023-05-12T07:30:03.705Z,99.90
2023-05-12T07:32:31.284Z,99.90
2023-05-12T07:34:58.823Z,99.90
2023-05-12T07:37:26.489Z,99.90
2023-05-12T07:39:54.283Z,99.90
2023-05-12T07:42:22.781Z,99.90
2023-05-12T07:44:50.626Z,99.60
2023-05-12T07:47:18.500Z,99.90
2023-05-12T07:49:46.238Z,99.80
2023-05-12T07:52:13.986Z,99.90
2023-05-12T07:54:41.457Z,99.90
2023-05-12T07:57:08.950Z,99.90
2023-05-12T07:59:36.561Z,99.90
2023-05-12T08:02:04.277Z,99.60
2023-05-12T08:04:31.976Z,99.80
2023-05-12T08:06:59.531Z,98.70
2023-05-12T08:09:27.019Z,99.80
2023-05-12T08:11:54.774Z,99.00
2023-05-12T08:14:23.055Z,97.90
2023-05-12T08:16:50.871Z,98.70
2023-05-12T08:19:18.474Z,99.20
2023-05-12T08:21:45.957Z,96.80
2023-05-12T08:24:16.490Z,99.80
2023-05-12T08:26:43.908Z,98.00
2023-05-12T08:29:11.689Z,98.30
2023-05-12T08:31:39.647Z,99.20
2023-05-12T08:34:10.869Z,96.50
2023-05-12T08:36:41.990Z,97.60
2023-05-12T08:39:12.658Z,96.40
2023-05-12T08:42:03.536Z,96.60
2023-05-12T08:44:32.438Z,97.60
2023-05-12T08:47:02.478Z,94.80
2023-05-12T08:49:33.159Z,97.10
2023-05-12T08:52:03.214Z,95.70
2023-05-12T08:54:31.037Z,94.60
2023-05-12T08:59:29.378Z,95.70
2023-05-12T09:01:58.821Z,95.10
2023-05-12T09:04:26.342Z,93.50
2023-05-12T09:06:55.714Z,98.90
2023-05-12T09:09:25.734Z,95.70
2023-05-12T09:11:57.815Z,95.90
2023-05-12T09:14:26.521Z,95.60
2023-05-12T09:17:01.561Z,95.00
2023-05-12T09:19:29.801Z,93.90
2023-05-12T09:21:58.621Z,92.40
2023-05-12T09:24:36.770Z,93.20
2023-05-12T09:27:05.149Z,92.10
2023-05-12T09:29:37.464Z,94.30
2023-05-12T09:32:12.970Z,92.40
2023-05-12T09:34:41.675Z,91.60
2023-05-12T09:37:09.800Z,94.30
2023-05-12T09:39:37.367Z,93.00
2023-05-12T09:42:11.168Z,93.00
2023-05-12T09:44:41.023Z,91.70
2023-05-12T09:47:10.622Z,91.30
2023-05-12T09:49:38.521Z,92.60
2023-05-12T09:52:06.441Z,93.80
2023-05-12T09:54:34.813Z,91.80
2023-05-12T09:57:11.412Z,88.00
2023-05-12T09:59:41.655Z,89.00
2023-05-12T10:02:13.956Z,87.20
2023-05-12T10:05:05.339Z,88.20
2023-05-12T10:07:33.935Z,90.70
2023-05-12T10:10:05.655Z,90.10
2023-05-12T10:12:35.040Z,90.90
2023-05-12T10:15:04.054Z,87.10
2023-05-12T10:17:32.787Z,89.60
2023-05-12T10:20:01.302Z,91.60
2023-05-12T10:22:31.392Z,90.80
2023-05-12T10:24:59.071Z,90.50
2023-05-12T10:27:27.612Z,86.60
2023-05-12T10:29:55.922Z,89.80
2023-05-12T10:32:23.655Z,88.00
2023-05-12T10:34:52.284Z,87.20
2023-05-12T10:37:19.932Z,88.70
2023-05-12T10:39:52.566Z,87.90
2023-05-12T10:42:26.173Z,81.00
2023-05-12T10:44:56.514Z,79.70
2023-05-12T10:47:37.783Z,84.20
2023-05-12T10:50:06.079Z,76.50
2023-05-12T10:52:33.824Z,84.10
2023-05-12T10:55:08.317Z,79.90
2023-05-12T10:57:36.576Z,83.70
2023-05-12T11:00:05.203Z,73.00
2023-05-12T11:02:35.946Z,73.90
2023-05-12T11:05:13.187Z,74.90
2023-05-12T11:07:47.733Z,73.00
2023-05-12T11:10:15.826Z,73.10
2023-05-12T11:12:45.152Z,75.00
2023-05-12T11:15:13.726Z,71.40
2023-05-12T11:17:42.055Z,70.90
2023-05-12T11:20:10.218Z,67.10
2023-05-12T11:22:37.874Z,62.30
2023-05-12T11:25:13.127Z,63.90
2023-05-12T11:27:53.276Z,68.60
2023-05-12T11:30:21.555Z,66.30
2023-05-12T11:33:03.588Z,59.10
2023-05-12T11:35:32.740Z,63.00
2023-05-12T11:38:00.744Z,58.70
2023-05-12T11:40:28.199Z,58.80
2023-05-12T11:42:56.337Z,53.20
2023-05-12T11:45:29.550Z,56.50
2023-05-12T11:48:34.844Z,59.10
2023-05-12T11:51:03.486Z,57.20
2023-05-12T11:53:30.952Z,52.90
2023-05-12T11:55:59.347Z,56.50
2023-05-12T11:58:30.864Z,55.10
2023-05-12T12:01:12.884Z,56.40
2023-05-12T12:03:51.873Z,57.60
2023-05-12T12:06:21.531Z,58.80
2023-05-12T12:09:02.869Z,53.20
2023-05-12T12:11:34.845Z,53.10
2023-05-12T12:14:02.641Z,55.20
2023-05-12T12:16:32.187Z,56.50
2023-05-12T12:18:59.834Z,54.00
2023-05-12T12:21:27.644Z,49.10
2023-05-12T12:23:55.076Z,49.80
2023-05-12T12:26:23.234Z,45.40
2023-05-12T12:28:50.953Z,49.20
2023-05-12T12:31:19.065Z,47.70
2023-05-12T12:33:46.596Z,48.70
2023-05-12T12:36:14.187Z,46.90
2023-05-12T12:38:41.834Z,48.90
2023-05-12T12:41:09.714Z,49.20
2023-05-12T12:43:37.185Z,49.00
2023-05-12T12:46:04.989Z,49.90
2023-05-12T12:48:33.645Z,46.20
2023-05-12T12:51:01.747Z,46.10
2023-05-12T12:53:29.270Z,46.40
2023-05-12T12:55:56.965Z,49.80
2023-05-12T12:58:24.532Z,50.70
2023-05-12T13:00:52.741Z,48.20
2023-05-12T13:03:20.474Z,47.40
2023-05-12T13:05:48.368Z,48.50
2023-05-12T13:08:17.633Z,48.90
2023-05-12T13:10:45.736Z,48.80
2023-05-12T13:13:13.419Z,49.50
2023-05-12T13:15:42.313Z,54.60
2023-05-12T13:18:09.850Z,53.80
2023-05-12T13:20:37.416Z,54.80
2023-05-12T13:23:04.868Z,54.00
2023-05-12T13:25:32.495Z,53.70
2023-05-12T13:27:59.978Z,54.50
2023-05-12T13:30:27.722Z,49.90
2023-05-12T13:32:55.497Z,51.60
2023-05-12T13:35:23.229Z,53.00
2023-05-12T13:37:50.942Z,53.10
2023-05-12T13:40:18.648Z,52.20
2023-05-12T13:42:46.167Z,52.60
2023-05-12T13:45:13.730Z,49.80
2023-05-12T13:47:41.301Z,49.80
2023-05-12T13:50:09.391Z,50.90
2023-05-12T13:52:37.062Z,51.60
2023-05-12T13:55:05.103Z,52.50
2023-05-12T13:57:32.589Z,51.60
2023-05-12T14:00:00.075Z,53.90
2023-05-12T14:02:27.848Z,51.20
2023-05-12T14:04:56.790Z,52.00
2023-05-12T14:07:25.574Z,56.20
2023-05-12T14:09:53.037Z,53.40
2023-05-12T14:12:20.647Z,55.50
2023-05-12T14:14:50.177Z,53.20
2023-05-12T14:17:18.847Z,52.00
2023-05-12T14:19:46.371Z,52.80
2023-05-12T14:22:25.478Z,54.50
2023-05-12T14:24:55.856Z,54.20
2023-05-12T14:27:24.092Z,53.00
2023-05-12T14:29:51.645Z,52.00
2023-05-12T14:32:19.164Z,53.30
2023-05-12T14:34:46.674Z,52.60
2023-05-12T14:37:14.335Z,52.50
2023-05-12T14:39:41.812Z,54.20
2023-05-12T14:42:09.521Z,55.50
2023-05-12T14:44:37.584Z,55.60
2023-05-12T14:47:06.405Z,54.50
2023-05-12T14:49:35.932Z,54.30
2023-05-12T14:52:04.085Z,55.90
2023-05-12T14:54:33.742Z,56.40
2023-05-12T14:57:01.185Z,57.70
2023-05-12T14:59:31.174Z,57.20
2023-05-12T15:01:58.702Z,56.90
2023-05-12T15:04:27.344Z,55.20
2023-05-12T15:06:54.829Z,55.40
2023-05-12T15:09:22.664Z,56.70
2023-05-12T15:11:51.637Z,56.70
2023-05-12T15:14:19.292Z,58.80
2023-05-12T15:16:47.022Z,57.30
2023-05-12T15:19:15.565Z,57.30
2023-05-12T15:21:43.152Z,55.60
2023-05-12T15:24:10.781Z,56.00
2023-05-12T15:26:40.260Z,54.30
2023-05-12T15:29:08.185Z,54.20
2023-05-12T15:31:35.960Z,53.80
2023-05-12T15:34:03.561Z,52.90
2023-05-12T15:36:31.179Z,51.00
2023-05-12T15:38:58.929Z,52.20
2023-05-12T15:41:26.486Z,51.40
2023-05-12T15:43:53.982Z,50.40
2023-05-12T15:46:22.021Z,50.80
2023-05-12T15:48:50.120Z,51.60
2023-05-12T15:51:17.717Z,52.90
2023-05-12T15:53:45.914Z,52.80
2023-05-12T15:56:13.415Z,53.60
2023-05-12T15:58:40.901Z,53.40
2023-05-12T16:01:08.555Z,53.50
2023-05-12T16:03:36.320Z,53.60
2023-05-12T16:06:03.975Z,54.80
2023-05-12T16:08:32.465Z,53.60
2023-05-12T16:11:00.927Z,53.70
2023-05-12T16:13:28.438Z,54.80
2023-05-12T16:15:55.935Z,54.00
2023-05-12T16:18:23.454Z,54.40
2023-05-12T16:20:51.330Z,53.80
2023-05-12T16:23:18.913Z,53.00
2023-05-12T16:25:46.527Z,52.20
2023-05-12T16:28:14.823Z,53.60
2023-05-12T16:30:42.296Z,53.40
2023-05-12T16:33:10.268Z,53.20
2023-05-12T16:35:38.149Z,53.00
2023-05-12T16:38:05.680Z,52.80
2023-05-12T16:40:33.145Z,51.30
2023-05-12T16:43:00.701Z,53.30
2023-05-12T16:45:28.199Z,52.90
2023-05-12T16:47:55.685Z,52.50
2023-05-12T16:50:23.240Z,52.70
2023-05-12T16:52:52.267Z,52.80
2023-05-12T16:55:20.125Z,52.70
2023-05-12T16:57:47.770Z,53.60
2023-05-12T17:00:16.293Z,54.30
2023-05-12T17:02:43.896Z,53.00
2023-05-12T17:05:11.407Z,53.50
2023-05-12T17:07:38.962Z,54.20
2023-05-12T17:10:06.915Z,55.10
2023-05-12T17:12:34.574Z,55.30
2023-05-12T17:15:07.619Z,55.40
2023-05-12T17:17:36.279Z,54.40
2023-05-12T17:20:04.285Z,54.90
2023-05-12T17:22:32.718Z,55.40
2023-05-12T17:25:00.180Z,55.40
2023-05-12T17:27:27.976Z,54.80
2023-05-12T17:29:55.451Z,55.10
2023-05-12T17:32:23.180Z,55.80
2023-05-12T17:34:51.334Z,56.30
2023-05-12T17:37:19.085Z,56.30
2023-05-12T17:39:46.612Z,57.20
2023-05-12T17:42:14.203Z,57.40
2023-05-12T17:44:41.853Z,57.80
2023-05-12T17:47:13.226Z,58.30
2023-05-12T17:49:41.997Z,58.50
2023-05-12T17:52:09.550Z,61.90
2023-05-12T17:54:37.249Z,63.10
2023-05-12T17:57:05.173Z,64.40
2023-05-12T17:59:32.687Z,66.00
2023-05-12T18:02:00.364Z,67.60
2023-05-12T18:04:28.328Z,68.50
2023-05-12T18:06:56.488Z,69.10
2023-05-12T18:09:24.003Z,68.60
2023-05-12T18:11:51.574Z,69.70
2023-05-12T18:14:19.051Z,69.80
2023-05-12T18:16:46.503Z,69.90
2023-05-12T18:19:14.101Z,71.60
2023-05-12T18:21:41.668Z,70.30
2023-05-12T18:24:09.279Z,70.40
2023-05-12T18:26:36.798Z,72.50
2023-05-12T18:29:04.280Z,71.70
2023-05-12T18:31:31.913Z,72.90
2023-05-12T18:33:59.535Z,73.50
2023-05-12T18:36:28.150Z,72.90
2023-05-12T18:38:55.804Z,73.50
2023-05-12T18:41:23.415Z,74.00
2023-05-12T18:43:50.893Z,74.10
2023-05-12T18:46:18.935Z,73.70
2023-05-12T18:48:46.391Z,75.70
2023-05-12T18:51:14.036Z,76.50
2023-05-12T18:53:41.511Z,74.80
2023-05-12T18:56:09.001Z,75.00
2023-05-12T18:58:36.732Z,74.50
2023-05-12T19:01:05.854Z,74.30
2023-05-12T19:03:34.421Z,75.50
2023-05-12T19:06:01.923Z,77.80
2023-05-12T19:08:29.469Z,77.70
2023-05-12T19:10:57.010Z,77.30
2023-05-12T19:13:24.536Z,77.00
2023-05-12T19:15:52.038Z,76.80
2023-05-12T19:18:19.597Z,76.80
2023-05-12T19:20:47.427Z,77.40
2023-05-12T19:23:15.264Z,77.30
2023-05-12T19:25:43.623Z,77.70
2023-05-12T19:28:12.092Z,78.00
2023-05-12T19:30:39.654Z,78.00
2023-05-12T19:33:07.431Z,78.50
2023-05-12T19:35:36.404Z,79.00
2023-05-12T19:38:03.939Z,78.80
2023-05-12T19:40:31.405Z,78.80
2023-05-12T19:42:58.860Z,78.50
2023-05-12T19:45:27.580Z,79.20
2023-05-12T19:47:57.815Z,78.70
2023-05-12T19:50:25.897Z,79.20
2023-05-12T19:52:53.416Z,79.20
2023-05-12T19:55:21.632Z,79.80
2023-05-12T19:57:49.341Z,80.00
2023-05-12T20:00:17.199Z,80.50
2023-05-12T20:02:44.916Z,81.00
2023-05-12T20:05:12.604Z,81.90
2023-05-12T20:07:40.147Z,81.90
2023-05-12T20:10:08.578Z,82.20
2023-05-12T20:12:36.072Z,83.70
2023-05-12T20:15:03.916Z,82.80
2023-05-12T20:17:31.466Z,83.30
2023-05-12T20:20:01.406Z,83.80
2023-05-12T20:22:29.424Z,84.10
2023-05-12T20:25:04.127Z,84.90
2023-05-12T20:27:33.000Z,85.40
2023-05-12T20:30:00.457Z,86.30
2023-05-12T20:32:28.035Z,87.10
2023-05-12T20:34:55.584Z,87.90
2023-05-12T20:37:23.115Z,88.10
2023-05-12T20:39:50.624Z,88.80
2023-05-12T20:42:18.147Z,89.20
2023-05-12T20:44:45.671Z,90.00
2023-05-12T20:47:13.775Z,90.20
2023-05-12T20:49:41.352Z,90.20
2023-05-12T20:52:08.843Z,90.40
2023-05-12T20:54:36.650Z,90.60
2023-05-12T20:57:04.328Z,90.80
2023-05-12T20:59:32.095Z,91.00
2023-05-12T21:01:59.770Z,91.10
2023-05-12T21:04:27.343Z,91.50
2023-05-12T21:06:54.872Z,91.60
2023-05-12T21:09:22.361Z,91.90
2023-05-12T21:11:49.844Z,92.10
2023-05-12T21:14:17.358Z,92.20
2023-05-12T21:16:45.344Z,92.20
2023-05-12T21:19:12.938Z,92.30
2023-05-12T21:21:40.506Z,92.40
2023-05-12T21:24:08.185Z,92.40
2023-05-12T21:26:35.673Z,92.40
2023-05-12T21:29:03.701Z,92.40
2023-05-12T21:31:31.601Z,92.50
2023-05-12T21:33:59.169Z,92.70
2023-05-12T21:36:27.223Z,92.60
2023-05-12T21:38:54.727Z,92.70
2023-05-12T21:41:22.609Z,92.60
2023-05-12T21:43:50.114Z,92.60
2023-05-12T21:46:17.823Z,92.60
2023-05-12T21:48:45.466Z,92.60
2023-05-12T21:51:13.367Z,92.60
2023-05-12T21:53:40.875Z,92.50
2023-05-12T21:56:08.431Z,92.50
2023-05-12T21:58:37.173Z,92.30
2023-05-12T22:01:04.689Z,92.40
2023-05-12T22:03:33.126Z,92.60
2023-05-12T22:06:00.797Z,92.40
2023-05-12T22:08:28.655Z,92.40
2023-05-12T22:10:57.141Z,92.50
2023-05-12T22:13:24.683Z,92.40
2023-05-12T22:15:52.317Z,92.50
2023-05-12T22:18:19.805Z,92.70
2023-05-12T22:20:47.339Z,93.00
2023-05-12T22:23:14.851Z,92.90
2023-05-12T22:25:42.329Z,92.90
2023-05-12T22:28:09.789Z,92.80
2023-05-12T22:30:37.269Z,92.90
2023-05-12T22:33:04.858Z,93.00
2023-05-12T22:35:32.419Z,93.00
2023-05-12T22:38:00.542Z,93.10
2023-05-12T22:40:28.198Z,92.90
2023-05-12T22:42:55.730Z,92.90
2023-05-12T22:45:23.182Z,92.80
2023-05-12T22:47:50.804Z,92.80
2023-05-12T22:50:20.258Z,92.70
2023-05-12T22:52:48.060Z,93.10
2023-05-12T22:55:15.682Z,92.60
2023-05-12T22:57:46.189Z,92.60
2023-05-12T23:00:14.461Z,92.60
2023-05-12T23:02:42.077Z,92.60
2023-05-12T23:05:10.168Z,92.70
2023-05-12T23:07:37.604Z,92.60
2023-05-12T23:10:06.235Z,93.00
2023-05-12T23:12:33.805Z,93.00
2023-05-12T23:15:01.335Z,93.10
2023-05-12T23:17:28.878Z,93.20
2023-05-12T23:19:56.845Z,93.10
2023-05-12T23:22:25.041Z,93.10
2023-05-12T23:24:53.624Z,93.20
2023-05-12T23:27:21.653Z,93.50
2023-05-12T23:29:49.151Z,93.30
2023-05-12T23:32:16.834Z,93.20
2023-05-12T23:34:44.656Z,93.30
2023-05-12T23:37:12.145Z,93.40
2023-05-12T23:39:39.630Z,93.60
2023-05-12T23:42:07.982Z,93.60
2023-05-12T23:44:35.713Z,93.50
2023-05-12T23:47:03.222Z,93.50
2023-05-12T23:49:30.692Z,93.60
2023-05-12T23:51:58.157Z,93.60
2023-05-12T23:54:25.733Z,93.40
2023-05-12T23:56:53.191Z,93.50
2023-05-12T23:59:20.829Z,93.30
